sensor_id;sensor_type;location;lat;lon;timestamp;pressure;altitude;pressure_sealevel;temperature;humidity
39455;BME280;25155;41.890;23.446;2023-03-14T00:00:09;92101.59;;;-0.27;48.50
39455;BME280;25155;41.890;23.446;2023-03-14T00:02:37;92097.09;;;-0.32;49.09
39455;BME280;25155;41.890;23.446;2023-03-14T00:05:06;92090.22;;;-0.38;49.10
39455;BME280;25155;41.890;23.446;2023-03-14T00:07:35;92085.63;;;-0.36;48.92
39455;BME280;25155;41.890;23.446;2023-03-14T00:10:04;92083.47;;;-0.39;48.43
39455;BME280;25155;41.890;23.446;2023-03-14T00:12:34;92072.81;;;-0.43;48.36
39455;BME280;25155;41.890;23.446;2023-03-14T00:15:01;92072.25;;;-0.45;48.76
39455;BME280;25155;41.890;23.446;2023-03-14T00:17:30;92072.66;;;-0.48;48.49
39455;BME280;25155;41.890;23.446;2023-03-14T00:19:57;92073.44;;;-0.47;48.29
39455;BME280;25155;41.890;23.446;2023-03-14T00:22:34;92071.94;;;-0.55;48.43
39455;BME280;25155;41.890;23.446;2023-03-14T00:25:01;92068.03;;;-0.64;48.78
39455;BME280;25155;41.890;23.446;2023-03-14T00:27:28;92063.50;;;-0.69;48.83
39455;BME280;25155;41.890;23.446;2023-03-14T00:30:00;92062.19;;;-0.78;48.76
39455;BME280;25155;41.890;23.446;2023-03-14T00:32:28;92057.03;;;-0.78;49.02
39455;BME280;25155;41.890;23.446;2023-03-14T00:34:55;92052.09;;;-0.80;49.00
39455;BME280;25155;41.890;23.446;2023-03-14T00:37:22;92046.16;;;-0.80;48.85
39455;BME280;25155;41.890;23.446;2023-03-14T00:39:51;92050.53;;;-0.81;48.81
39455;BME280;25155;41.890;23.446;2023-03-14T00:42:18;92045.16;;;-0.79;48.85
39455;BME280;25155;41.890;23.446;2023-03-14T00:44:45;92042.59;;;-0.79;48.82
39455;BME280;25155;41.890;23.446;2023-03-14T00:47:14;92040.28;;;-0.87;49.93
39455;BME280;25155;41.890;23.446;2023-03-14T00:49:41;92034.75;;;-0.91;49.95
39455;BME280;25155;41.890;23.446;2023-03-14T00:52:09;92026.72;;;-1.01;49.12
39455;BME280;25155;41.890;23.446;2023-03-14T00:54:36;92030.44;;;-0.97;49.06
39455;BME280;25155;41.890;23.446;2023-03-14T00:57:04;92030.06;;;-1.01;49.03
39455;BME280;25155;41.890;23.446;2023-03-14T00:59:32;92027.91;;;-1.04;49.79
39455;BME280;25155;41.890;23.446;2023-03-14T01:01:59;92029.91;;;-1.06;49.81
39455;BME280;25155;41.890;23.446;2023-03-14T01:04:28;92021.81;;;-1.09;49.43
39455;BME280;25155;41.890;23.446;2023-03-14T01:06:56;92019.03;;;-1.08;49.74
39455;BME280;25155;41.890;23.446;2023-03-14T01:09:23;92022.59;;;-1.09;49.69
39455;BME280;25155;41.890;23.446;2023-03-14T01:11:50;92009.53;;;-1.07;49.38
39455;BME280;25155;41.890;23.446;2023-03-14T01:14:17;92012.50;;;-1.10;49.66
39455;BME280;25155;41.890;23.446;2023-03-14T01:16:45;92010.16;;;-1.12;49.26
39455;BME280;25155;41.890;23.446;2023-03-14T01:19:13;92008.00;;;-1.15;49.66
39455;BME280;25155;41.890;23.446;2023-03-14T01:21:41;92000.69;;;-1.18;49.51
39455;BME280;25155;41.890;23.446;2023-03-14T01:24:11;91993.41;;;-1.21;49.98
39455;BME280;25155;41.890;23.446;2023-03-14T01:26:38;91982.53;;;-1.23;50.01
39455;BME280;25155;41.890;23.446;2023-03-14T01:29:05;91979.16;;;-1.24;50.16
39455;BME280;25155;41.890;23.446;2023-03-14T01:31:32;91980.34;;;-1.26;50.00
39455;BME280;25155;41.890;23.446;2023-03-14T01:34:00;91978.81;;;-1.27;50.43
39455;BME280;25155;41.890;23.446;2023-03-14T01:36:27;91978.31;;;-1.43;52.03
39455;BME280;25155;41.890;23.446;2023-03-14T01:38:56;91970.44;;;-1.55;51.68
39455;BME280;25155;41.890;23.446;2023-03-14T01:41:25;91968.69;;;-1.54;51.24
39455;BME280;25155;41.890;23.446;2023-03-14T01:43:52;91960.41;;;-1.63;51.30
39455;BME280;25155;41.890;23.446;2023-03-14T01:46:23;91976.38;;;-1.54;50.83
39455;BME280;25155;41.890;23.446;2023-03-14T01:48:57;91973.81;;;-1.54;50.98
39455;BME280;25155;41.890;23.446;2023-03-14T01:51:30;91972.63;;;-1.58;50.61
39455;BME280;25155;41.890;23.446;2023-03-14T01:54:05;91967.13;;;-1.62;50.72
39455;BME280;25155;41.890;23.446;2023-03-14T01:56:34;91966.75;;;-1.65;50.82
39455;BME280;25155;41.890;23.446;2023-03-14T01:59:05;91966.00;;;-1.73;50.69
39455;BME280;25155;41.890;23.446;2023-03-14T02:01:34;91966.41;;;-1.76;50.53
39455;BME280;25155;41.890;23.446;2023-03-14T02:04:04;91970.53;;;-1.75;50.80
39455;BME280;25155;41.890;23.446;2023-03-14T02:06:40;91962.84;;;-1.75;51.18
39455;BME280;25155;41.890;23.446;2023-03-14T02:09:10;91967.97;;;-1.75;50.77
39455;BME280;25155;41.890;23.446;2023-03-14T02:11:38;91967.19;;;-1.75;51.23
39455;BME280;25155;41.890;23.446;2023-03-14T02:14:05;91962.06;;;-1.75;50.91
39455;BME280;25155;41.890;23.446;2023-03-14T02:16:35;91959.69;;;-1.77;51.58
39455;BME280;25155;41.890;23.446;2023-03-14T02:19:03;91966.63;;;-1.77;51.23
39455;BME280;25155;41.890;23.446;2023-03-14T02:21:42;91965.22;;;-1.80;51.13
39455;BME280;25155;41.890;23.446;2023-03-14T02:24:19;91968.81;;;-1.81;51.12
39455;BME280;25155;41.890;23.446;2023-03-14T02:27:08;91971.19;;;-1.86;51.38
39455;BME280;25155;41.890;23.446;2023-03-14T02:29:39;91970.19;;;-1.85;51.29
39455;BME280;25155;41.890;23.446;2023-03-14T02:32:08;91966.84;;;-1.85;51.58
39455;BME280;25155;41.890;23.446;2023-03-14T02:34:36;91967.47;;;-1.97;51.85
39455;BME280;25155;41.890;23.446;2023-03-14T02:37:03;91977.38;;;-2.00;52.60
39455;BME280;25155;41.890;23.446;2023-03-14T02:39:36;91975.63;;;-2.06;52.35
39455;BME280;25155;41.890;23.446;2023-03-14T02:42:06;91974.22;;;-2.09;52.14
39455;BME280;25155;41.890;23.446;2023-03-14T02:44:33;91977.59;;;-2.09;52.08
39455;BME280;25155;41.890;23.446;2023-03-14T02:47:02;91970.09;;;-2.10;52.18
39455;BME280;25155;41.890;23.446;2023-03-14T02:49:30;91965.16;;;-2.12;51.95
39455;BME280;25155;41.890;23.446;2023-03-14T02:51:59;91964.19;;;-2.11;51.90
39455;BME280;25155;41.890;23.446;2023-03-14T02:54:26;91971.66;;;-2.09;51.76
39455;BME280;25155;41.890;23.446;2023-03-14T02:56:53;91971.66;;;-2.09;51.91
39455;BME280;25155;41.890;23.446;2023-03-14T02:59:22;91970.09;;;-2.10;51.57
39455;BME280;25155;41.890;23.446;2023-03-14T03:01:49;91963.19;;;-2.10;51.66
39455;BME280;25155;41.890;23.446;2023-03-14T03:04:16;91962.59;;;-2.12;51.64
39455;BME280;25155;41.890;23.446;2023-03-14T03:06:43;91965.38;;;-2.13;51.75
39455;BME280;25155;41.890;23.446;2023-03-14T03:09:10;91964.59;;;-2.14;51.66
39455;BME280;25155;41.890;23.446;2023-03-14T03:11:38;91963.41;;;-2.18;51.56
39455;BME280;25155;41.890;23.446;2023-03-14T03:14:05;91952.38;;;-2.32;53.44
39455;BME280;25155;41.890;23.446;2023-03-14T03:16:33;91959.31;;;-2.46;53.34
39455;BME280;25155;41.890;23.446;2023-03-14T03:19:00;91961.09;;;-2.46;52.99
39455;BME280;25155;41.890;23.446;2023-03-14T03:21:27;91957.75;;;-2.47;53.13
39455;BME280;25155;41.890;23.446;2023-03-14T03:23:55;91963.88;;;-2.48;52.88
39455;BME280;25155;41.890;23.446;2023-03-14T03:26:22;91966.25;;;-2.46;52.71
39455;BME280;25155;41.890;23.446;2023-03-14T03:28:50;91963.88;;;-2.48;52.51
39455;BME280;25155;41.890;23.446;2023-03-14T03:31:18;91959.50;;;-2.47;52.88
39455;BME280;25155;41.890;23.446;2023-03-14T03:33:46;91963.50;;;-2.51;53.15
39455;BME280;25155;41.890;23.446;2023-03-14T03:36:13;91963.31;;;-2.56;53.66
39455;BME280;25155;41.890;23.446;2023-03-14T03:38:41;91961.91;;;-2.59;53.43
39455;BME280;25155;41.890;23.446;2023-03-14T03:41:08;91969.03;;;-2.61;53.22
39455;BME280;25155;41.890;23.446;2023-03-14T03:43:35;91966.66;;;-2.63;52.94
39455;BME280;25155;41.890;23.446;2023-03-14T03:46:03;91965.69;;;-2.68;53.02
39455;BME280;25155;41.890;23.446;2023-03-14T03:48:32;91964.28;;;-2.64;52.58
39455;BME280;25155;41.890;23.446;2023-03-14T03:51:03;91965.31;;;-2.65;52.41
39455;BME280;25155;41.890;23.446;2023-03-14T03:53:31;91963.50;;;-2.65;52.70
39455;BME280;25155;41.890;23.446;2023-03-14T03:55:58;91958.78;;;-2.68;52.70
39455;BME280;25155;41.890;23.446;2023-03-14T03:58:26;91964.88;;;-2.69;53.14
39455;BME280;25155;41.890;23.446;2023-03-14T04:00:54;91943.78;;;-2.77;52.91
39455;BME280;25155;41.890;23.446;2023-03-14T04:03:21;91956.63;;;-2.77;53.20
39455;BME280;25155;41.890;23.446;2023-03-14T04:05:58;91947.94;;;-2.83;53.27
39455;BME280;25155;41.890;23.446;2023-03-14T04:08:27;91953.84;;;-2.83;52.90
39455;BME280;25155;41.890;23.446;2023-03-14T04:10:56;91956.44;;;-2.83;53.17
39455;BME280;25155;41.890;23.446;2023-03-14T04:13:23;91954.44;;;-2.80;53.11
39455;BME280;25155;41.890;23.446;2023-03-14T04:15:51;91938.88;;;-2.86;53.22
39455;BME280;25155;41.890;23.446;2023-03-14T04:18:18;91946.56;;;-2.86;53.34
39455;BME280;25155;41.890;23.446;2023-03-14T04:20:51;91948.94;;;-2.84;53.25
39455;BME280;25155;41.890;23.446;2023-03-14T04:23:18;91945.97;;;-2.88;54.38
39455;BME280;25155;41.890;23.446;2023-03-14T04:25:47;91948.94;;;-2.91;54.23
39455;BME280;25155;41.890;23.446;2023-03-14T04:28:15;91945.78;;;-2.93;53.81
39455;BME280;25155;41.890;23.446;2023-03-14T04:30:42;91943.41;;;-2.94;53.75
39455;BME280;25155;41.890;23.446;2023-03-14T04:33:09;91954.47;;;-2.94;54.00
39455;BME280;25155;41.890;23.446;2023-03-14T04:35:38;91943.63;;;-2.96;54.01
39455;BME280;25155;41.890;23.446;2023-03-14T04:38:06;91952.28;;;-2.97;54.10
39455;BME280;25155;41.890;23.446;2023-03-14T04:40:33;91957.59;;;-2.98;53.95
39455;BME280;25155;41.890;23.446;2023-03-14T04:43:02;91957.22;;;-3.02;54.76
39455;BME280;25155;41.890;23.446;2023-03-14T04:45:31;91954.47;;;-3.07;55.13
39455;BME280;25155;41.890;23.446;2023-03-14T04:47:58;91956.25;;;-3.08;54.16
39455;BME280;25155;41.890;23.446;2023-03-14T04:50:25;91951.13;;;-3.08;54.26
39455;BME280;25155;41.890;23.446;2023-03-14T04:52:52;91949.91;;;-3.05;54.15
39455;BME280;25155;41.890;23.446;2023-03-14T04:55:19;91954.06;;;-3.04;54.02
39455;BME280;25155;41.890;23.446;2023-03-14T04:57:47;91955.28;;;-3.00;53.94
39455;BME280;25155;41.890;23.446;2023-03-14T05:00:16;91956.06;;;-2.99;53.81
39455;BME280;25155;41.890;23.446;2023-03-14T05:02:45;91952.28;;;-2.97;53.53
39455;BME280;25155;41.890;23.446;2023-03-14T05:05:13;91947.16;;;-2.97;54.03
39455;BME280;25155;41.890;23.446;2023-03-14T05:07:40;91958.22;;;-2.96;53.69
39455;BME280;25155;41.890;23.446;2023-03-14T05:10:08;91961.97;;;-2.99;53.45
39455;BME280;25155;41.890;23.446;2023-03-14T05:12:36;91954.84;;;-2.97;53.81
39455;BME280;25155;41.890;23.446;2023-03-14T05:15:04;91955.84;;;-2.98;53.57
39455;BME280;25155;41.890;23.446;2023-03-14T05:17:34;91956.06;;;-2.99;53.56
39455;BME280;25155;41.890;23.446;2023-03-14T05:20:02;91949.72;;;-2.97;54.11
39455;BME280;25155;41.890;23.446;2023-03-14T05:22:33;91951.13;;;-3.28;54.47
39455;BME280;25155;41.890;23.446;2023-03-14T05:25:00;91947.75;;;-3.15;54.76
39455;BME280;25155;41.890;23.446;2023-03-14T05:27:28;91946.97;;;-3.09;54.21
39455;BME280;25155;41.890;23.446;2023-03-14T05:29:55;91947.78;;;-3.02;54.69
39455;BME280;25155;41.890;23.446;2023-03-14T05:32:22;91945.78;;;-2.99;54.85
39455;BME280;25155;41.890;23.446;2023-03-14T05:34:51;91948.34;;;-2.99;55.43
39455;BME280;25155;41.890;23.446;2023-03-14T05:37:18;91954.66;;;-3.02;56.25
39455;BME280;25155;41.890;23.446;2023-03-14T05:39:45;91956.06;;;-3.06;56.70
39455;BME280;25155;41.890;23.446;2023-03-14T05:42:13;91957.03;;;-3.07;56.45
39455;BME280;25155;41.890;23.446;2023-03-14T05:44:40;91958.81;;;-3.01;56.23
39455;BME280;25155;41.890;23.446;2023-03-14T05:47:07;91956.63;;;-2.97;56.31
39455;BME280;25155;41.890;23.446;2023-03-14T05:49:34;91957.41;;;-2.97;56.76
39455;BME280;25155;41.890;23.446;2023-03-14T05:52:03;91952.28;;;-2.97;56.62
39455;BME280;25155;41.890;23.446;2023-03-14T05:54:30;91960.78;;;-2.90;56.15
39455;BME280;25155;41.890;23.446;2023-03-14T05:56:58;91958.41;;;-2.85;55.97
39455;BME280;25155;41.890;23.446;2023-03-14T05:59:25;91952.88;;;-2.82;56.28
39455;BME280;25155;41.890;23.446;2023-03-14T06:01:53;91954.84;;;-2.77;56.45
39455;BME280;25155;41.890;23.446;2023-03-14T06:04:20;91952.69;;;-2.73;56.51
39455;BME280;25155;41.890;23.446;2023-03-14T06:06:47;91952.06;;;-2.69;56.61
39455;BME280;25155;41.890;23.446;2023-03-14T06:09:16;91961.16;;;-2.66;56.76
39455;BME280;25155;41.890;23.446;2023-03-14T06:11:45;91953.06;;;-2.63;56.85
39455;BME280;25155;41.890;23.446;2023-03-14T06:14:13;91952.03;;;-2.62;57.15
39455;BME280;25155;41.890;23.446;2023-03-14T06:16:40;91943.97;;;-2.66;57.12
39455;BME280;25155;41.890;23.446;2023-03-14T06:19:07;91951.66;;;-2.59;58.08
39455;BME280;25155;41.890;23.446;2023-03-14T06:21:34;91947.53;;;-2.60;58.50
39455;BME280;25155;41.890;23.446;2023-03-14T06:24:02;91938.25;;;-2.61;59.05
39455;BME280;25155;41.890;23.446;2023-03-14T06:26:31;91950.84;;;-2.53;59.05
39455;BME280;25155;41.890;23.446;2023-03-14T06:28:58;91936.81;;;-2.43;59.23
39455;BME280;25155;41.890;23.446;2023-03-14T06:31:29;91936.19;;;-2.39;59.36
39455;BME280;25155;41.890;23.446;2023-03-14T06:33:56;91929.25;;;-2.25;59.56
39455;BME280;25155;41.890;23.446;2023-03-14T06:36:23;91932.75;;;-2.13;59.62
39455;BME280;25155;41.890;23.446;2023-03-14T06:38:50;91923.44;;;-2.00;60.22
39455;BME280;25155;41.890;23.446;2023-03-14T06:41:17;91920.22;;;-1.89;60.26
39455;BME280;25155;41.890;23.446;2023-03-14T06:43:46;91922.34;;;-1.79;60.27
39455;BME280;25155;41.890;23.446;2023-03-14T06:46:13;91922.28;;;-1.66;61.20
39455;BME280;25155;41.890;23.446;2023-03-14T06:48:41;91920.00;;;-1.49;60.71
39455;BME280;25155;41.890;23.446;2023-03-14T06:51:08;91927.41;;;-1.34;60.53
39455;BME280;25155;41.890;23.446;2023-03-14T06:53:35;91929.47;;;-1.18;60.56
39455;BME280;25155;41.890;23.446;2023-03-14T06:56:02;91928.75;;;-1.00;59.61
39455;BME280;25155;41.890;23.446;2023-03-14T06:58:30;91922.69;;;-0.87;59.75
39455;BME280;25155;41.890;23.446;2023-03-14T07:00:59;91924.63;;;-0.82;58.78
39455;BME280;25155;41.890;23.446;2023-03-14T07:03:26;91926.56;;;-0.78;59.14
39455;BME280;25155;41.890;23.446;2023-03-14T07:05:53;91914.28;;;-0.75;58.27
39455;BME280;25155;41.890;23.446;2023-03-14T07:08:20;91908.56;;;-0.59;58.26
39455;BME280;25155;41.890;23.446;2023-03-14T07:10:47;91911.72;;;-0.57;58.36
39455;BME280;25155;41.890;23.446;2023-03-14T07:13:14;91913.38;;;-0.44;58.00
39455;BME280;25155;41.890;23.446;2023-03-14T07:15:42;91909.53;;;-0.35;58.14
39455;BME280;25155;41.890;23.446;2023-03-14T07:18:11;91905.22;;;-0.23;57.96
39455;BME280;25155;41.890;23.446;2023-03-14T07:20:38;91895.19;;;-0.12;57.71
39455;BME280;25155;41.890;23.446;2023-03-14T07:23:06;91907.31;;;0.18;57.73
39455;BME280;25155;41.890;23.446;2023-03-14T07:25:33;91907.00;;;0.44;57.50
39455;BME280;25155;41.890;23.446;2023-03-14T07:28:00;91897.41;;;0.75;56.94
39455;BME280;25155;41.890;23.446;2023-03-14T07:30:27;91903.63;;;1.10;56.39
39455;BME280;25155;41.890;23.446;2023-03-14T07:32:54;91901.38;;;1.37;54.69
39455;BME280;25155;41.890;23.446;2023-03-14T07:35:22;91895.53;;;1.41;52.91
39455;BME280;25155;41.890;23.446;2023-03-14T07:37:49;91891.94;;;1.42;52.26
39455;BME280;25155;41.890;23.446;2023-03-14T07:40:17;91893.41;;;1.50;53.07
39455;BME280;25155;41.890;23.446;2023-03-14T07:42:44;91885.53;;;1.69;53.57
39455;BME280;25155;41.890;23.446;2023-03-14T07:45:12;91883.22;;;1.84;52.70
39455;BME280;25155;41.890;23.446;2023-03-14T07:47:39;91882.09;;;1.92;52.42
39455;BME280;25155;41.890;23.446;2023-03-14T07:50:07;91880.81;;;2.06;52.46
39455;BME280;25155;41.890;23.446;2023-03-14T07:52:36;91867.28;;;2.16;50.94
39455;BME280;25155;41.890;23.446;2023-03-14T07:55:04;91871.53;;;2.22;50.57
39455;BME280;25155;41.890;23.446;2023-03-14T07:57:31;91871.94;;;2.31;51.28
39455;BME280;25155;41.890;23.446;2023-03-14T07:59:58;91859.06;;;2.48;50.63
39455;BME280;25155;41.890;23.446;2023-03-14T08:02:26;91865.56;;;2.67;49.80
39455;BME280;25155;41.890;23.446;2023-03-14T08:04:53;91859.16;;;2.87;49.72
39455;BME280;25155;41.890;23.446;2023-03-14T08:07:20;91858.25;;;3.10;49.56
39455;BME280;25155;41.890;23.446;2023-03-14T08:09:48;91856.59;;;3.21;48.50
39455;BME280;25155;41.890;23.446;2023-03-14T08:12:15;91849.50;;;3.33;48.75
39455;BME280;25155;41.890;23.446;2023-03-14T08:14:42;91848.94;;;3.48;48.04
39455;BME280;25155;41.890;23.446;2023-03-14T08:17:09;91851.22;;;3.67;48.47
39455;BME280;25155;41.890;23.446;2023-03-14T08:19:36;91843.16;;;3.85;48.89
39455;BME280;25155;41.890;23.446;2023-03-14T08:22:04;91838.22;;;4.06;48.58
39455;BME280;25155;41.890;23.446;2023-03-14T08:24:31;91837.09;;;4.24;47.79
39455;BME280;25155;41.890;23.446;2023-03-14T08:27:00;91834.66;;;4.39;48.16
39455;BME280;25155;41.890;23.446;2023-03-14T08:29:27;91832.53;;;4.63;48.51
39455;BME280;25155;41.890;23.446;2023-03-14T08:31:54;91817.91;;;4.84;46.66
39455;BME280;25155;41.890;23.446;2023-03-14T08:34:21;91816.94;;;4.95;46.30
39455;BME280;25155;41.890;23.446;2023-03-14T08:36:48;91811.59;;;5.12;45.78
39455;BME280;25155;41.890;23.446;2023-03-14T08:39:15;91814.53;;;5.21;45.86
39455;BME280;25155;41.890;23.446;2023-03-14T08:41:43;91806.28;;;5.35;46.32
39455;BME280;25155;41.890;23.446;2023-03-14T08:44:11;91810.06;;;5.54;46.02
39455;BME280;25155;41.890;23.446;2023-03-14T08:46:38;91802.56;;;5.68;45.83
39455;BME280;25155;41.890;23.446;2023-03-14T08:49:05;91800.28;;;5.82;45.12
39455;BME280;25155;41.890;23.446;2023-03-14T08:51:32;91788.63;;;5.95;44.92
39455;BME280;25155;41.890;23.446;2023-03-14T08:53:59;91794.16;;;6.09;44.75
39455;BME280;25155;41.890;23.446;2023-03-14T08:56:27;91793.09;;;6.15;43.57
39455;BME280;25155;41.890;23.446;2023-03-14T08:58:54;91799.38;;;6.24;44.33
39455;BME280;25155;41.890;23.446;2023-03-14T09:01:22;91785.88;;;6.32;43.66
39455;BME280;25155;41.890;23.446;2023-03-14T09:03:52;91784.03;;;6.38;43.04
39455;BME280;25155;41.890;23.446;2023-03-14T09:06:19;91780.41;;;6.44;42.55
39455;BME280;25155;41.890;23.446;2023-03-14T09:08:46;91780.41;;;6.54;43.32
39455;BME280;25155;41.890;23.446;2023-03-14T09:11:13;91778.59;;;6.70;43.33
39455;BME280;25155;41.890;23.446;2023-03-14T09:13:40;91779.13;;;6.77;41.66
39455;BME280;25155;41.890;23.446;2023-03-14T09:16:08;91771.81;;;6.79;41.46
39455;BME280;25155;41.890;23.446;2023-03-14T09:18:38;91768.69;;;6.88;42.16
39455;BME280;25155;41.890;23.446;2023-03-14T09:21:05;91774.91;;;7.07;42.13
39455;BME280;25155;41.890;23.446;2023-03-14T09:23:32;91769.16;;;7.21;41.26
39455;BME280;25155;41.890;23.446;2023-03-14T09:26:00;91766.81;;;7.24;41.25
39455;BME280;25155;41.890;23.446;2023-03-14T09:28:27;91759.28;;;7.33;40.90
39455;BME280;25155;41.890;23.446;2023-03-14T09:30:56;91757.66;;;7.47;40.76
39455;BME280;25155;41.890;23.446;2023-03-14T09:33:23;91748.50;;;7.60;39.83
39455;BME280;25155;41.890;23.446;2023-03-14T09:35:52;91753.19;;;7.58;39.71
39455;BME280;25155;41.890;23.446;2023-03-14T09:38:19;91746.66;;;7.61;39.58
39455;BME280;25155;41.890;23.446;2023-03-14T09:40:47;91747.16;;;7.68;39.49
39455;BME280;25155;41.890;23.446;2023-03-14T09:43:15;91734.56;;;7.80;38.59
39455;BME280;25155;41.890;23.446;2023-03-14T09:45:45;91728.03;;;7.88;38.01
39455;BME280;25155;41.890;23.446;2023-03-14T09:48:16;91722.50;;;7.95;39.55
39455;BME280;25155;41.890;23.446;2023-03-14T09:50:48;91727.38;;;8.12;38.92
39455;BME280;25155;41.890;23.446;2023-03-14T09:53:20;91719.41;;;8.32;39.82
39455;BME280;25155;41.890;23.446;2023-03-14T09:55:50;91718.00;;;8.50;39.12
39455;BME280;25155;41.890;23.446;2023-03-14T09:58:20;91711.88;;;8.65;36.94
39455;BME280;25155;41.890;23.446;2023-03-14T10:00:47;91707.81;;;8.78;38.21
39455;BME280;25155;41.890;23.446;2023-03-14T10:03:25;91695.19;;;8.90;39.00
39455;BME280;25155;41.890;23.446;2023-03-14T10:05:55;91697.59;;;9.11;39.58
39455;BME280;25155;41.890;23.446;2023-03-14T10:08:24;91686.44;;;9.29;40.16
39455;BME280;25155;41.890;23.446;2023-03-14T10:10:51;91688.34;;;9.48;40.45
39455;BME280;25155;41.890;23.446;2023-03-14T10:13:21;91682.13;;;9.63;40.66
39455;BME280;25155;41.890;23.446;2023-03-14T10:15:52;91674.38;;;9.77;39.37
39455;BME280;25155;41.890;23.446;2023-03-14T10:18:20;91666.78;;;9.94;39.67
39455;BME280;25155;41.890;23.446;2023-03-14T10:21:36;91662.47;;;10.03;40.02
39455;BME280;25155;41.890;23.446;2023-03-14T10:24:19;91655.28;;;10.14;36.79
39455;BME280;25155;41.890;23.446;2023-03-14T10:26:52;91641.94;;;10.10;36.56
39455;BME280;25155;41.890;23.446;2023-03-14T10:29:20;91646.78;;;10.22;37.14
39455;BME280;25155;41.890;23.446;2023-03-14T10:31:52;91637.41;;;10.35;37.95
39455;BME280;25155;41.890;23.446;2023-03-14T10:34:21;91628.81;;;10.16;36.74
39455;BME280;25155;41.890;23.446;2023-03-14T10:36:52;91623.09;;;10.46;38.53
39455;BME280;25155;41.890;23.446;2023-03-14T10:39:25;91617.38;;;10.25;36.45
39455;BME280;25155;41.890;23.446;2023-03-14T10:41:55;91611.88;;;10.60;38.16
39455;BME280;25155;41.890;23.446;2023-03-14T10:44:30;91609.78;;;10.76;35.91
39455;BME280;25155;41.890;23.446;2023-03-14T10:47:00;91603.56;;;10.86;36.23
39455;BME280;25155;41.890;23.446;2023-03-14T10:49:29;91595.50;;;10.96;36.53
39455;BME280;25155;41.890;23.446;2023-03-14T10:52:02;91591.72;;;11.02;35.16
39455;BME280;25155;41.890;23.446;2023-03-14T10:54:32;91584.91;;;11.01;33.48
39455;BME280;25155;41.890;23.446;2023-03-14T10:57:00;91580.66;;;11.05;34.09
39455;BME280;25155;41.890;23.446;2023-03-14T10:59:34;91566.75;;;11.18;34.62
39455;BME280;25155;41.890;23.446;2023-03-14T11:02:10;91567.09;;;11.39;35.86
39455;BME280;25155;41.890;23.446;2023-03-14T11:04:55;91556.78;;;11.57;35.08
39455;BME280;25155;41.890;23.446;2023-03-14T11:07:31;91544.84;;;11.65;34.92
39455;BME280;25155;41.890;23.446;2023-03-14T11:10:08;91543.72;;;11.80;34.37
39455;BME280;25155;41.890;23.446;2023-03-14T11:12:45;91530.66;;;11.88;33.32
39455;BME280;25155;41.890;23.446;2023-03-14T11:15:21;91523.34;;;11.85;32.14
39455;BME280;25155;41.890;23.446;2023-03-14T11:18:13;91523.47;;;11.80;31.88
39455;BME280;25155;41.890;23.446;2023-03-14T11:20:52;91513.88;;;11.75;32.17
39455;BME280;25155;41.890;23.446;2023-03-14T11:23:23;91507.47;;;11.90;33.03
39455;BME280;25155;41.890;23.446;2023-03-14T11:25:58;91499.34;;;12.01;33.66
39455;BME280;25155;41.890;23.446;2023-03-14T11:28:33;91489.56;;;12.15;34.86
39455;BME280;25155;41.890;23.446;2023-03-14T11:31:11;91487.63;;;12.29;34.17
39455;BME280;25155;41.890;23.446;2023-03-14T11:33:47;91477.91;;;12.39;34.87
39455;BME280;25155;41.890;23.446;2023-03-14T11:36:20;91473.81;;;12.55;33.73
39455;BME280;25155;41.890;23.446;2023-03-14T11:38:50;91463.16;;;12.60;32.04
39455;BME280;25155;41.890;23.446;2023-03-14T11:41:23;91444.56;;;12.48;31.01
39455;BME280;25155;41.890;23.446;2023-03-14T11:43:54;91453.28;;;12.66;31.93
39455;BME280;25155;41.890;23.446;2023-03-14T11:46:25;91446.41;;;12.79;31.22
39455;BME280;25155;41.890;23.446;2023-03-14T11:49:01;91446.41;;;12.79;31.53
39455;BME280;25155;41.890;23.446;2023-03-14T11:51:34;91428.47;;;12.81;30.03
39455;BME280;25155;41.890;23.446;2023-03-14T11:54:10;91431.56;;;12.83;29.24
39455;BME280;25155;41.890;23.446;2023-03-14T11:56:45;91424.56;;;12.78;29.74
39455;BME280;25155;41.890;23.446;2023-03-14T11:59:17;91424.38;;;12.75;29.35
39455;BME280;25155;41.890;23.446;2023-03-14T12:01:53;91416.53;;;12.83;30.39
39455;BME280;25155;41.890;23.446;2023-03-14T12:04:46;91412.84;;;12.93;29.97
39455;BME280;25155;41.890;23.446;2023-03-14T12:07:19;91405.75;;;13.02;29.51
39455;BME280;25155;41.890;23.446;2023-03-14T12:09:49;91403.88;;;13.12;28.92
39455;BME280;25155;41.890;23.446;2023-03-14T12:12:22;91402.19;;;13.07;27.93
39455;BME280;25155;41.890;23.446;2023-03-14T12:14:54;91392.91;;;13.01;29.38
39455;BME280;25155;41.890;23.446;2023-03-14T12:17:25;91394.16;;;13.12;30.08
39455;BME280;25155;41.890;23.446;2023-03-14T12:20:05;91392.88;;;13.18;29.15
39455;BME280;25155;41.890;23.446;2023-03-14T12:22:35;91390.28;;;13.27;28.92
39455;BME280;25155;41.890;23.446;2023-03-14T12:25:06;91383.75;;;13.33;28.42
39455;BME280;25155;41.890;23.446;2023-03-14T12:27:48;91383.28;;;13.40;29.05
39455;BME280;25155;41.890;23.446;2023-03-14T12:30:24;91367.81;;;13.47;28.60
39455;BME280;25155;41.890;23.446;2023-03-14T12:38:51;91355.28;;;13.35;28.57
39455;BME280;25155;41.890;23.446;2023-03-14T12:41:22;91351.41;;;13.50;28.06
39455;BME280;25155;41.890;23.446;2023-03-14T12:43:53;91343.66;;;13.36;27.32
39455;BME280;25155;41.890;23.446;2023-03-14T12:46:24;91351.69;;;13.40;28.03
39455;BME280;25155;41.890;23.446;2023-03-14T12:49:03;91341.63;;;13.51;28.52
39455;BME280;25155;41.890;23.446;2023-03-14T12:51:35;91333.44;;;13.52;28.58
39455;BME280;25155;41.890;23.446;2023-03-14T12:54:35;91336.69;;;13.49;27.86
39455;BME280;25155;41.890;23.446;2023-03-14T12:57:25;91335.16;;;13.39;27.74
39455;BME280;25155;41.890;23.446;2023-03-14T12:59:57;91332.34;;;13.45;28.54
39455;BME280;25155;41.890;23.446;2023-03-14T13:02:26;91324.31;;;13.41;28.16
39455;BME280;25155;41.890;23.446;2023-03-14T13:05:02;91325.56;;;13.44;27.88
39455;BME280;25155;41.890;23.446;2023-03-14T13:07:35;91319.69;;;13.29;27.89
39455;BME280;25155;41.890;23.446;2023-03-14T13:10:19;91319.69;;;13.29;28.83